createdAt,value
2023-01-20T00:00:38.280Z,80.99
2023-01-20T00:05:40.375Z,81.55
2023-01-20T00:10:42.395Z,81.29
2023-01-20T00:15:44.713Z,81.95
2023-01-20T00:20:46.857Z,81.87
2023-01-20T00:25:48.817Z,81.19
2023-01-20T00:30:50.851Z,81.36
2023-01-20T00:35:52.950Z,81.79
2023-01-20T00:40:55.445Z,81.34
2023-01-20T00:45:57.445Z,81.39
2023-01-20T00:50:59.461Z,81.95
2023-01-20T00:56:01.565Z,81.46
2023-01-20T01:01:04.037Z,81.41
2023-01-20T01:06:14.600Z,82.18
2023-01-20T01:11:16.612Z,81.98
2023-01-20T01:16:18.702Z,81.96
2023-01-20T01:21:23.747Z,81.98
2023-01-20T01:26:25.813Z,81.72
2023-01-20T01:31:27.859Z,81.22
2023-01-20T01:36:29.867Z,82.18
2023-01-20T01:41:32.102Z,81.52
2023-01-20T01:46:34.510Z,82.28
2023-01-20T01:51:41.905Z,81.54
2023-01-20T01:56:46.707Z,82.00
2023-01-20T02:07:53.677Z,81.75
2023-01-20T02:12:56.114Z,81.81
2023-01-20T02:18:37.155Z,81.94
2023-01-20T02:24:14.559Z,81.19
2023-01-20T02:29:31.737Z,81.33
2023-01-20T02:34:44.135Z,81.71
2023-01-20T02:40:17.382Z,81.47
2023-01-20T02:45:45.523Z,81.47
2023-01-20T02:50:56.712Z,81.02
2023-01-20T02:55:59.281Z,81.02
2023-01-20T03:01:30.832Z,80.69
2023-01-20T03:06:38.287Z,81.53
2023-01-20T03:11:47.355Z,81.27
2023-01-20T03:16:50.623Z,81.77
2023-01-20T03:21:52.890Z,81.52
2023-01-20T03:26:55.104Z,80.14
2023-01-20T03:32:00.116Z,80.84
2023-01-20T03:37:04.227Z,81.31
2023-01-20T03:42:16.192Z,80.92
2023-01-20T03:47:18.209Z,80.35
2023-01-20T03:52:47.064Z,80.95
2023-01-20T03:57:58.883Z,81.07
2023-01-20T04:03:05.586Z,80.47
2023-01-20T04:08:10.352Z,80.33
2023-01-20T04:13:12.476Z,80.74
2023-01-20T04:18:21.371Z,80.61
2023-01-20T04:24:11.735Z,80.66
2023-01-20T04:29:13.746Z,80.46
2023-01-20T04:34:16.081Z,80.81
2023-01-20T04:39:18.074Z,79.90
2023-01-20T04:44:20.101Z,79.90
2023-01-20T04:49:22.148Z,80.63
2023-01-20T04:54:24.233Z,79.65
2023-01-20T04:59:26.795Z,81.04
2023-01-20T05:04:28.946Z,80.01
2023-01-20T05:09:30.932Z,80.68
2023-01-20T05:14:32.978Z,80.53
2023-01-20T05:19:34.991Z,79.77
2023-01-20T05:24:37.058Z,81.04
2023-01-20T05:29:39.080Z,80.19
2023-01-20T05:34:41.133Z,80.18
2023-01-20T05:39:43.173Z,81.27
2023-01-20T05:44:45.254Z,80.66
2023-01-20T05:49:47.465Z,80.74
2023-01-20T05:54:49.564Z,81.38
2023-01-20T05:59:52.596Z,81.32
2023-01-20T06:04:56.332Z,80.84
2023-01-20T06:09:58.740Z,80.90
2023-01-20T06:15:00.787Z,80.95
2023-01-20T06:20:04.676Z,80.29
2023-01-20T06:25:07.092Z,81.14
2023-01-20T06:30:09.986Z,81.96
2023-01-20T06:35:12.357Z,81.47
2023-01-20T06:40:15.363Z,81.14
2023-01-20T06:45:17.527Z,80.92
2023-01-20T06:50:19.769Z,81.83
2023-01-20T06:55:22.155Z,81.72
2023-01-20T07:00:24.512Z,81.05
2023-01-20T07:05:26.578Z,81.24
2023-01-20T07:10:28.669Z,83.10
2023-01-20T07:15:30.813Z,82.59
2023-01-20T07:20:32.976Z,83.64
2023-01-20T07:25:35.122Z,90.12
2023-01-20T07:30:37.520Z,91.87
2023-01-20T07:35:39.750Z,92.22
2023-01-20T07:40:41.834Z,91.25
2023-01-20T07:45:44.909Z,90.41
2023-01-20T07:50:47.426Z,89.79
2023-01-20T07:55:49.612Z,88.26
2023-01-20T08:00:51.879Z,87.28
2023-01-20T08:05:54.133Z,85.39
2023-01-20T08:10:56.318Z,84.33
2023-01-20T08:16:05.844Z,83.34
2023-01-20T08:21:16.492Z,82.03
2023-01-20T08:26:19.795Z,80.51
2023-01-20T08:31:26.098Z,79.53
2023-01-20T08:36:31.270Z,77.88
2023-01-20T08:41:36.840Z,77.13
2023-01-20T08:46:41.841Z,75.25
2023-01-20T08:51:45.367Z,74.31
2023-01-20T08:56:51.370Z,73.31
2023-01-20T09:01:53.476Z,71.83
2023-01-20T09:06:55.581Z,70.99
2023-01-20T09:11:57.728Z,70.31
2023-01-20T09:17:02.003Z,69.17
2023-01-20T09:22:04.459Z,67.55
2023-01-20T09:27:06.446Z,59.22
2023-01-20T09:32:08.662Z,64.76
2023-01-20T09:37:29.064Z,64.56
2023-01-20T09:43:09.975Z,64.63
2023-01-20T09:48:55.522Z,64.29
2023-01-20T09:54:07.627Z,63.70
2023-01-20T09:59:26.908Z,62.49
2023-01-20T10:04:45.883Z,61.78
2023-01-20T10:10:24.631Z,59.18
2023-01-20T10:15:36.404Z,58.91
2023-01-20T10:20:41.944Z,58.05
2023-01-20T10:26:10.643Z,56.98
2023-01-20T10:31:18.268Z,61.06
2023-01-20T10:36:27.687Z,60.73
2023-01-20T10:41:32.862Z,59.31
2023-01-20T10:47:05.081Z,57.43
2023-01-20T10:52:13.267Z,55.31
2023-01-20T10:57:16.468Z,54.45
2023-01-20T11:02:25.125Z,44.12
2023-01-20T11:07:29.107Z,52.89
2023-01-20T11:12:37.272Z,52.31
2023-01-20T11:17:39.447Z,53.01
2023-01-20T11:22:49.787Z,52.51
2023-01-20T11:27:53.025Z,53.38
2023-01-20T11:33:14.448Z,53.74
2023-01-20T14:01:15.278Z,62.32
2023-01-20T14:06:24.067Z,61.87
2023-01-20T14:11:28.019Z,60.86
2023-01-20T14:16:42.079Z,61.25
2023-01-20T14:21:44.227Z,61.85
2023-01-20T14:26:46.318Z,62.10
2023-01-20T14:31:48.587Z,62.32
2023-01-20T14:36:51.952Z,62.88
2023-01-20T14:41:57.047Z,62.15
2023-01-20T14:47:02.788Z,62.94
2023-01-20T14:57:31.720Z,63.20
2023-01-20T15:02:37.990Z,63.69
2023-01-20T15:07:40.148Z,63.68
2023-01-20T15:12:45.243Z,63.52
2023-01-20T15:18:21.750Z,63.72
2023-01-20T15:23:39.230Z,63.91
2023-01-20T15:28:45.191Z,64.39
2023-01-20T15:33:47.297Z,64.29
2023-01-20T15:38:49.959Z,64.42
2023-01-20T15:43:52.812Z,64.63
2023-01-20T15:48:54.844Z,64.96
2023-01-20T15:53:57.006Z,65.37
2023-01-20T15:58:59.550Z,65.11
2023-01-20T16:04:01.841Z,65.23
2023-01-20T16:09:16.507Z,66.33
2023-01-20T16:14:18.954Z,66.10
2023-01-20T16:19:21.127Z,66.34
2023-01-20T16:24:23.163Z,66.20
2023-01-20T16:29:25.450Z,66.64
2023-01-20T16:34:27.637Z,66.61
2023-01-20T16:39:30.075Z,66.98
2023-01-20T16:44:32.256Z,66.88
2023-01-20T16:49:34.613Z,66.92
2023-01-20T16:54:37.257Z,67.26
2023-01-20T16:59:39.579Z,67.50
2023-01-20T17:04:41.955Z,75.08
2023-01-20T17:09:44.204Z,71.10
2023-01-20T17:14:46.724Z,69.42
2023-01-20T17:19:49.108Z,69.45
2023-01-20T17:24:52.094Z,69.77
2023-01-20T17:29:54.987Z,69.92
2023-01-20T17:34:57.916Z,69.03
2023-01-20T17:40:05.802Z,75.22
2023-01-20T17:45:10.383Z,77.21
2023-01-20T17:50:15.191Z,78.40
2023-01-20T17:55:18.364Z,76.41
2023-01-20T18:00:21.626Z,74.81
2023-01-20T18:05:24.857Z,73.50
2023-01-20T18:10:28.205Z,72.29
2023-01-20T18:15:30.893Z,66.12
2023-01-20T18:20:33.957Z,64.27
2023-01-20T18:25:36.888Z,65.93
2023-01-20T18:30:40.482Z,66.12
2023-01-20T18:35:44.797Z,66.17
2023-01-20T18:40:47.983Z,65.72
2023-01-20T18:45:54.327Z,65.40
2023-01-20T18:51:01.520Z,64.66
2023-01-20T18:56:13.470Z,63.94
2023-01-20T19:01:25.351Z,63.05
2023-01-20T19:06:33.307Z,63.46
2023-01-20T19:11:41.684Z,63.00
2023-01-20T19:16:49.633Z,63.04
2023-01-20T19:21:53.988Z,63.12
2023-01-20T19:26:58.916Z,62.97
2023-01-20T19:32:07.108Z,63.06
2023-01-20T19:37:10.822Z,62.93
2023-01-20T19:42:14.758Z,63.12
2023-01-20T19:47:18.043Z,63.04
2023-01-20T19:52:20.946Z,63.73
2023-01-20T19:57:24.574Z,63.46
2023-01-20T20:02:31.551Z,63.87
2023-01-20T20:07:46.094Z,64.07
2023-01-20T20:12:57.701Z,63.69
2023-01-20T20:18:00.883Z,64.38
2023-01-20T20:23:05.994Z,64.33
2023-01-20T20:28:10.138Z,65.00
2023-01-20T20:33:13.835Z,64.94
2023-01-20T20:38:17.320Z,65.25
2023-01-20T20:43:24.299Z,65.31
2023-01-20T20:48:28.649Z,65.77
2023-01-20T20:53:32.566Z,65.65
2023-01-20T20:58:43.343Z,65.95
2023-01-20T21:03:52.219Z,66.33
2023-01-20T21:08:55.574Z,66.39
2023-01-20T21:13:58.660Z,66.43
2023-01-20T21:19:03.705Z,66.87
2023-01-20T21:24:11.924Z,66.64
2023-01-20T21:29:27.332Z,66.92
2023-01-20T21:34:33.431Z,67.06
2023-01-20T21:39:38.825Z,67.04
2023-01-20T21:44:46.018Z,67.10
2023-01-20T21:50:07.610Z,67.54
2023-01-20T21:55:20.538Z,67.34
2023-01-20T22:00:23.526Z,68.00
2023-01-20T22:05:26.108Z,68.14
2023-01-20T22:10:29.699Z,67.75
2023-01-20T22:15:40.362Z,67.74
2023-01-20T22:20:44.726Z,68.18
2023-01-20T22:25:59.379Z,68.76
2023-01-20T22:31:10.665Z,68.50
2023-01-20T22:36:13.084Z,68.14
2023-01-20T22:41:18.862Z,68.30
2023-01-20T22:46:22.355Z,68.82
2023-01-20T22:51:33.826Z,68.75
2023-01-20T22:56:36.198Z,68.70
2023-01-20T23:01:38.234Z,69.23
2023-01-20T23:06:40.428Z,68.51
2023-01-20T23:11:42.495Z,68.88
2023-01-20T23:16:44.673Z,69.05
2023-01-20T23:21:46.802Z,69.69
2023-01-20T23:26:50.929Z,69.51
2023-01-20T23:31:55.602Z,69.72
2023-01-20T23:36:57.734Z,69.92
2023-01-20T23:41:59.896Z,69.24
2023-01-20T23:47:01.944Z,69.53
2023-01-20T23:52:05.097Z,69.77
2023-01-20T23:57:07.157Z,69.77
